Corsicana, TX (75110)

08:45 PM CDT em 26 de Julho de 2016 (GMT -0500)
Bowie - Collins School area | | Change Station

Elev 433 ft 32.11 °N, 96.49 °W | Updated 14 seconds ago

Céu Encoberto
Céu Encoberto
83.5 °F
Aparente 91 °F
N
2.7
Vento Variável Vento de NE
Gusts 4.9 mph

Hoje
Máxima -- | Mínima -- °F
--% Possibilidade de Precip.
Ontem
Máxima -- | Mínima -- °F
Precip. -- pol
Pressão 29.88 pol
Visibilidade 10.0 milhas
Nuvens Muito Nublado 10000 ft
Índice de Calor 91 °F
Ponto de Orvalho 74 °F
Humidade 74%
Chuva 0.00 pol
Altura de Neve Não disponível
6:37 AM 8:26 PM
Lua minguante, 49% visible
METAR KCRS 270053Z AUTO 09004KT 10SM -RA BKN100 30/22 A2990 RMK AO2 RAB46 SLP118 P0000 T03000222 TSNO
Pressão 29.88 pol
Visibilidade 10.0 milhas
Nuvens Muito Nublado 10000 ft
Índice de Calor 91 °F
Ponto de Orvalho 74 °F
Humidade 74%
Chuva 0.00 pol
Altura de Neve Não disponível
6:37 AM 8:26 PM
Lua minguante, 49% visible
METAR KCRS 270053Z AUTO 09004KT 10SM -RA BKN100 30/22 A2990 RMK AO2 RAB46 SLP118 P0000 T03000222 TSNO

10-Day Weather Forecast

Almanac

Astronomia

Jul. 26, 2016 Nascer Pôr
Hora atual
Crepúsculo civil
Crepúsculo náutico
Crepúsculo astronómico
Lua
Comprimento da luz visível
Duração do Dia
Tomorrow will be .
, % of the Moon is Illuminated

Extremos de Hoje

situação na parte mais alta situação na parte mais baixa

Community

WunderPhotos

Upload Photos

1,927,772 fotografias inseridas!

WunderBlog® & News

Nearby

Qualidade do Ar

  Qualidade do Ar Índice da Q.A. Poluente
Not available.

Altura da Neve

Estação altura Altitude

Actividade Sísmisca

Cidade Distância Mag. Hora & Data
Mínima magnitude apresentada é 2.5.

Temperaturas das Águas Costeiras

Local Temperatura

Stations

Estações Meteorológicas Próximas

Localização da Estação Temp. Sensação Térmica Ponto de Orvalho Humidade Vento Precip. Elev Actualizado Tipo
                   

Watches & Warnings

There are currently no watches in effect.